Language selection

My Weather Profile Weather Topics  | 

Explorer - southeastern half: Past 24 Hour Conditions

 

South Brooks - 46132

10:00 AM PST 09 December 2022Buoy position: 49.46N 127.53W
Disclaimer

This table is a summary of hourly weather conditions for the past 24 hours.
Please note that these observations might not always be representative of weather conditions over their associated marine area.

Date / Time
(PST)
Wind(knots) Wave height(m) Wave period(s) Pressure(kPa) Air tempC) Water tempC)
09 December 2022
10:00 ESE 30 gust 37 3.9 12.5 100.0 8 8
9:00 ESE 28 gust 36 3.5 13.3 100.2 7 8
8:00 SE 24 gust 33 3.5 14.3 100.3 7 8
7:00 SE 24 gust 30 3.8 13.3 100.4 7 8
6:00 SSE 20 gust 24 4.0 13.3 100.5 8 8
5:00 SSE 22 gust 28 4.1 13.3 100.6 7 8
4:00 SSE 18 gust 22 3.9 13.3 100.7 8 8
3:00 S 17 gust 20 4.0 12.5 100.7 8 8
2:00 SSE 17 gust 19 4.3 13.3 100.8 7 8
1:00 S 16 gust 19 4.6 13.3 100.8 7 8
0:00 SSW 16 gust 20 4.2 12.5 100.9 7 8
08 December 2022
23:00 S 13 gust 16 4.5 13.3 101.0 7 8
22:00 SSW 11 gust 14 4.5 12.5 101.0 7 8
21:00 SW 12 gust 15 4.2 13.3 101.1 7 8
20:00 WSW 10 gust 12 4.3 13.3 101.1 7 8
19:00 W 10 gust 15 4.3 13.3 101.1 7 8
18:00 W 18 gust 22 4.1 12.5 101.1 7 8
17:00 WSW 12 gust 17 4.7 13.3 101.1 7 9
16:00 N/A N/A N/A N/A N/A N/A
15:00 WSW 10 gust 14 4.3 13.3 101.1 8 9
14:00 WNW 9 gust 17 5.0 13.3 101.1 7 9
13:00 SSW 8 gust 11 4.8 14.3 101.1 8 9
12:00 SW 7 gust 11 5.4 13.3 101.1 7 9
11:00 W 11 gust 18 6.0 13.3 101.1 7 9
10:00 WSW 9 gust 13 5.5 14.3 101.1 7 9

Zoom-in to make a selection

Map of Pacific - South Coast marine weather areas South Nomad - 46036 Sentry Shoal - 46131 South Brooks - 46132 Halibut Bank - 46146 South Moresby - 46147 South Hecate Strait - 46185 West Sea Otter - 46204 La Perouse Bank - 46206 East Dellwood - 46207 Georgia Strait - 46303 English Bay - 46304 Discovery Island Esquimalt Harbour Kelp Reefs Malahat Race Rocks Lightstation Saturna Island Sheringham Point University of Victoria Victoria Gonzales Victoria Int'l Airport Ballenas Islands Campbell River Airport Comox Airport Entrance Island Fanny Island Nanaimo Airport Port Hardy Airport Sisters Islets Estevan Point Port Alberni Sartine Island Solander Island Tofino Airport Grief Point Howe Sound - Pam Rocks Powell River Airport Sechelt Squamish Airport Cape St.James Bella Bella Airport Bella Coola Airport Cathedral Point Herbert Island Point Atkinson Sand Heads Lightstation Tsawwassen Ferry Terminal Vancouver Int'l Airport Vancouver Harbour West Vancouver
Legend:
buoy Buoy
land station Land Station

Pacific - South Coast Area

Another Region

What we are doing

Date modified: